Time,TemperatureF,DewpointF,PressureIn,WindDirection,WindDirectionDegrees,WindSpeedMPH,WindSpeedGustMPH,Humidity,HourlyPrecipIn,Conditions,Clouds,dailyrainin,SoftwareType,DateUTC
2013-02-05 00:00:00,30.5,29.3,27.09,NNW,338,4.6,10.3,95,0.00,--,--,0.00,awk and wget,2013-02-05 05:00:00,
2013-02-05 00:05:00,30.7,29.4,27.09,NNW,336,5.1,10.3,95,0.00,--,--,0.00,awk and wget,2013-02-05 05:05:00,
2013-02-05 00:10:00,30.7,29.4,27.09,NNW,339,4.0,9.3,94,0.00,--,--,0.00,awk and wget,2013-02-05 05:10:00,
2013-02-05 00:15:00,30.7,29.4,27.09,NNW,336,10.1,10.4,94,0.00,--,--,0.00,awk and wget,2013-02-05 05:15:00,
2013-02-05 00:20:00,30.7,29.4,27.09,NNW,336,4.0,10.4,94,0.00,--,--,0.00,awk and wget,2013-02-05 05:20:00,
2013-02-05 00:30:00,30.8,29.6,27.08,NNW,339,3.9,10.3,95,0.00,--,--,0.00,awk and wget,2013-02-05 05:30:00,
2013-02-05 00:35:00,30.7,29.5,27.08,NNW,339,3.8,9.4,94,0.00,--,--,0.00,awk and wget,2013-02-05 05:35:00,
2013-02-05 00:40:00,30.9,29.7,27.08,NNW,339,4.6,13.6,95,0.00,--,--,0.00,awk and wget,2013-02-05 05:40:00,
2013-02-05 00:50:00,31.1,29.8,27.08,NNW,338,6.0,13.6,94,0.00,--,--,0.00,awk and wget,2013-02-05 05:50:00,
2013-02-05 01:00:00,31.3,30.0,27.08,NNW,336,6.4,12.4,94,0.00,--,--,0.00,awk and wget,2013-02-05 06:00:00,
2013-02-05 01:05:00,31.5,30.2,27.07,NNW,337,10.0,13.9,94,0.00,--,--,0.00,awk and wget,2013-02-05 06:05:00,
2013-02-05 01:10:00,31.8,30.3,27.07,NNW,340,10.4,15.9,94,0.00,--,--,0.00,awk and wget,2013-02-05 06:10:00,
2013-02-05 01:15:00,31.8,30.2,27.07,NNW,339,7.2,15.9,93,0.00,--,--,0.00,awk and wget,2013-02-05 06:15:00,
2013-02-05 01:20:00,31.9,30.2,27.07,NNW,340,9.5,15.9,93,0.00,--,--,0.00,awk and wget,2013-02-05 06:20:00,
2013-02-05 01:30:00,32.4,30.6,27.07,NNW,338,8.1,14.7,92,0.00,--,--,0.00,awk and wget,2013-02-05 06:30:00,
2013-02-05 01:40:00,32.4,30.6,27.07,NNE,31,4.2,14.8,92,0.00,--,--,0.00,awk and wget,2013-02-05 06:40:00,
2013-02-05 01:50:00,32.6,30.7,27.06,NNW,336,8.3,15.1,92,0.00,--,--,0.00,awk and wget,2013-02-05 06:50:00,
2013-02-05 01:55:00,32.6,30.6,27.07,NNW,337,6.1,16.3,92,0.00,--,--,0.00,awk and wget,2013-02-05 06:55:00,
2013-02-05 02:00:00,32.7,30.7,27.07,NNW,339,3.1,16.3,92,0.00,--,--,0.00,awk and wget,2013-02-05 07:00:00,
2013-02-05 02:05:00,32.8,30.7,27.06,SE,139,5.8,16.4,91,0.00,--,--,0.00,awk and wget,2013-02-05 07:05:00,
2013-02-05 02:10:00,32.7,30.6,27.06,SE,146,12.5,16.4,91,0.00,--,--,0.00,awk and wget,2013-02-05 07:10:00,
2013-02-05 02:15:00,32.4,30.3,27.06,North,7,4.9,16.4,92,0.00,--,--,0.00,awk and wget,2013-02-05 07:15:00,
2013-02-05 02:20:00,32.8,30.9,27.06,NNW,336,5.8,15.1,92,0.00,--,--,0.00,awk and wget,2013-02-05 07:20:00,
2013-02-05 02:30:00,32.7,30.5,27.06,NNW,336,8.1,14.3,91,0.00,--,--,0.00,awk and wget,2013-02-05 07:30:00,
2013-02-05 02:40:00,32.6,30.4,27.06,NNW,336,4.1,15.9,91,0.00,--,--,0.00,awk and wget,2013-02-05 07:40:00,
2013-02-05 02:45:00,33.5,31.0,27.05,NNW,339,5.0,15.9,90,0.00,--,--,0.00,awk and wget,2013-02-05 07:45:00,
2013-02-05 02:50:00,33.8,30.4,27.05,NNW,337,2.4,11.7,87,0.00,--,--,0.00,awk and wget,2013-02-05 07:50:00,
2013-02-05 02:55:00,34.6,30.4,27.05,NNW,337,3.0,11.7,84,0.00,--,--,0.00,awk and wget,2013-02-05 07:55:00,
2013-02-05 03:00:00,34.9,30.1,27.05,NNW,340,8.6,11.7,82,0.00,--,--,0.00,awk and wget,2013-02-05 08:00:00,
2013-02-05 03:10:00,34.7,30.3,27.05,NNW,337,3.8,14.0,83,0.00,--,--,0.00,awk and wget,2013-02-05 08:10:00,
2013-02-05 03:15:00,35.0,30.2,27.06,SE,140,3.7,14.0,82,0.00,--,--,0.00,awk and wget,2013-02-05 08:15:00,
2013-02-05 03:20:00,35.3,30.3,27.05,NNW,339,6.5,14.0,81,0.00,--,--,0.00,awk and wget,2013-02-05 08:20:00,
2013-02-05 03:30:00,35.6,30.5,27.05,NNW,335,3.9,11.7,81,0.00,--,--,0.00,awk and wget,2013-02-05 08:30:00,
2013-02-05 03:35:00,35.5,30.4,27.05,NNW,337,0.5,13.1,81,0.00,--,--,0.00,awk and wget,2013-02-05 08:35:00,
2013-02-05 03:40:00,35.8,30.7,27.05,NNW,338,4.4,13.1,81,0.00,--,--,0.00,awk and wget,2013-02-05 08:40:00,
2013-02-05 03:45:00,35.6,30.7,27.06,NNW,335,4.3,13.1,82,0.00,--,--,0.00,awk and wget,2013-02-05 08:45:00,
2013-02-05 03:50:00,35.5,30.8,27.05,SSE,152,3.0,14.2,82,0.00,--,--,0.00,awk and wget,2013-02-05 08:50:00,
2013-02-05 04:00:00,35.4,30.9,27.05,NNW,339,2.9,14.5,83,0.00,--,--,0.00,awk and wget,2013-02-05 09:00:00,
2013-02-05 04:10:00,35.0,31.1,27.06,NNW,334,4.1,12.6,85,0.00,--,--,0.00,awk and wget,2013-02-05 09:10:00,
2013-02-05 04:20:00,34.6,31.3,27.06,NNW,336,4.2,12.6,87,0.00,--,--,0.00,awk and wget,2013-02-05 09:20:00,
2013-02-05 04:30:00,34.5,31.7,27.06,NNW,339,3.2,11.8,89,0.00,--,--,0.00,awk and wget,2013-02-05 09:30:00,
2013-02-05 04:40:00,34.5,31.7,27.06,NNW,335,4.6,12.3,89,0.00,--,--,0.00,awk and wget,2013-02-05 09:40:00,
2013-02-05 04:45:00,34.2,31.6,27.06,NNW,341,2.9,12.3,89,0.00,--,--,0.00,awk and wget,2013-02-05 09:45:00,
2013-02-05 04:50:00,34.2,31.7,27.05,NNW,338,3.8,8.5,90,0.00,--,--,0.00,awk and wget,2013-02-05 09:50:00,
2013-02-05 05:00:00,34.1,31.8,27.06,NNW,337,2.8,8.5,91,0.00,--,--,0.00,awk and wget,2013-02-05 10:00:00,
2013-02-05 05:10:00,34.2,32.1,27.05,NNW,337,2.6,10.5,91,0.00,--,--,0.00,awk and wget,2013-02-05 10:10:00,
2013-02-05 05:15:00,34.2,32.0,27.05,NNW,337,1.3,10.5,91,0.00,--,--,0.00,awk and wget,2013-02-05 10:15:00,
2013-02-05 05:20:00,34.4,32.1,27.05,NNW,338,4.0,10.4,91,0.00,--,--,0.00,awk and wget,2013-02-05 10:20:00,
2013-02-05 05:25:00,34.5,32.0,27.06,NNW,339,6.8,8.7,90,0.00,--,--,0.00,awk and wget,2013-02-05 10:25:00,
2013-02-05 05:30:00,34.5,31.9,27.05,NNW,335,8.0,11.5,90,0.00,--,--,0.00,awk and wget,2013-02-05 10:30:00,
2013-02-05 05:40:00,34.5,31.6,27.05,East,90,3.5,16.5,89,0.00,--,--,0.00,awk and wget,2013-02-05 10:40:00,
2013-02-05 05:45:00,34.9,31.7,27.06,NNW,336,7.6,16.5,88,0.00,--,--,0.00,awk and wget,2013-02-05 10:45:00,
2013-02-05 05:50:00,35.3,31.5,27.06,NNW,339,5.0,16.5,85,0.00,--,--,0.00,awk and wget,2013-02-05 10:50:00,
2013-02-05 06:00:00,35.7,31.3,27.06,NNW,334,7.7,13.6,83,0.00,--,--,0.00,awk and wget,2013-02-05 11:00:00,
2013-02-05 06:10:00,35.1,31.2,27.07,NNW,337,4.1,13.8,85,0.00,--,--,0.00,awk and wget,2013-02-05 11:10:00,
2013-02-05 06:15:00,35.4,31.3,27.07,NNW,335,5.1,13.8,84,0.00,--,--,0.00,awk and wget,2013-02-05 11:15:00,
2013-02-05 06:20:00,34.8,30.8,27.06,SE,145,2.3,11.4,85,0.00,--,--,0.00,awk and wget,2013-02-05 11:20:00,
2013-02-05 06:30:00,34.9,31.5,27.06,SE,125,4.6,11.4,87,0.00,--,--,0.00,awk and wget,2013-02-05 11:30:00,
2013-02-05 06:40:00,34.8,31.3,27.07,NNW,338,2.9,9.1,86,0.00,--,--,0.00,awk and wget,2013-02-05 11:40:00,
2013-02-05 06:50:00,34.7,31.2,27.06,NNW,340,6.8,11.4,86,0.00,--,--,0.00,awk and wget,2013-02-05 11:50:00,
2013-02-05 07:00:00,34.3,31.1,27.06,NNW,336,2.4,10.1,88,0.00,--,--,0.00,awk and wget,2013-02-05 12:00:00,
2013-02-05 07:10:00,33.4,30.8,27.07,NNW,339,1.1,7.5,90,0.00,--,--,0.00,awk and wget,2013-02-05 12:10:00,
2013-02-05 07:20:00,33.1,31.2,27.07,NNW,335,2.1,7.0,92,0.00,--,--,0.00,awk and wget,2013-02-05 12:20:00,
2013-02-05 07:30:00,33.6,31.8,27.08,NNW,335,3.9,7.4,93,0.00,--,--,0.00,awk and wget,2013-02-05 12:30:00,
2013-02-05 07:40:00,33.8,31.7,27.08,NNW,340,8.1,8.1,91,0.00,--,--,0.00,awk and wget,2013-02-05 12:40:00,
2013-02-05 07:50:00,33.5,31.6,27.08,NNW,335,8.3,8.8,92,0.00,--,--,0.00,awk and wget,2013-02-05 12:50:00,
2013-02-05 08:00:00,33.5,31.6,27.08,NNW,340,3.8,8.3,92,0.00,--,--,0.00,awk and wget,2013-02-05 13:00:00,
2013-02-05 08:10:00,33.4,31.7,27.09,NNW,335,7.6,8.3,93,0.00,--,--,0.00,awk and wget,2013-02-05 13:10:00,
2013-02-05 08:20:00,33.2,31.7,27.10,NNW,334,8.5,8.5,93,0.00,--,--,0.00,awk and wget,2013-02-05 13:20:00,
2013-02-05 08:30:00,33.4,31.9,27.09,NNW,340,7.0,8.3,94,0.00,--,--,0.00,awk and wget,2013-02-05 13:30:00,
2013-02-05 08:40:00,33.3,31.8,27.09,NNW,340,6.5,8.3,94,0.00,--,--,0.00,awk and wget,2013-02-05 13:40:00,
2013-02-05 08:50:00,33.5,32.0,27.09,NNW,340,6.7,7.0,94,0.00,--,--,0.00,awk and wget,2013-02-05 13:50:00,
2013-02-05 09:00:00,33.8,32.2,27.09,NNW,336,2.7,6.5,93,0.00,--,--,0.00,awk and wget,2013-02-05 14:00:00,
2013-02-05 09:05:00,33.9,32.3,27.09,NNW,334,4.1,7.2,93,0.00,--,--,0.00,awk and wget,2013-02-05 14:05:00,
2013-02-05 09:10:00,34.1,32.4,27.09,NNW,335,2.7,8.1,93,0.00,--,--,0.00,awk and wget,2013-02-05 14:10:00,
2013-02-05 09:20:00,34.4,32.3,27.09,NNW,339,5.4,8.1,91,0.00,--,--,0.00,awk and wget,2013-02-05 14:20:00,
2013-02-05 09:30:00,34.8,32.4,27.09,NNW,334,5.4,7.7,90,0.00,--,--,0.00,awk and wget,2013-02-05 14:30:00,
2013-02-05 09:40:00,34.5,32.2,27.10,NNW,336,4.1,8.8,91,0.00,--,--,0.00,awk and wget,2013-02-05 14:40:00,
2013-02-05 09:50:00,34.7,32.3,27.10,NNW,338,4.0,10.1,90,0.00,--,--,0.00,awk and wget,2013-02-05 14:50:00,
2013-02-05 10:00:00,34.8,32.3,27.10,NNW,335,5.1,11.7,90,0.00,--,--,0.00,awk and wget,2013-02-05 15:00:00,
2013-02-05 10:10:00,34.8,32.1,27.10,NNW,339,2.2,12.0,89,0.00,--,--,0.00,awk and wget,2013-02-05 15:10:00,
2013-02-05 10:15:00,34.7,32.0,27.11,NNW,336,8.8,12.4,89,0.00,--,--,0.00,awk and wget,2013-02-05 15:15:00,
2013-02-05 10:20:00,34.6,32.0,27.11,NNW,334,5.1,13.3,90,0.00,--,--,0.00,awk and wget,2013-02-05 15:20:00,
2013-02-05 10:30:00,34.7,32.2,27.11,NNW,337,3.7,14.5,90,0.00,--,--,0.00,awk and wget,2013-02-05 15:30:00,
2013-02-05 10:40:00,34.6,32.2,27.10,ESE,109,4.0,14.5,90,0.00,--,--,0.00,awk and wget,2013-02-05 15:40:00,
2013-02-05 10:45:00,34.6,32.2,27.10,NNW,339,5.6,12.8,91,0.00,--,--,0.00,awk and wget,2013-02-05 15:45:00,
2013-02-05 10:50:00,34.6,32.4,27.10,NNW,338,2.1,13.3,91,0.00,--,--,0.00,awk and wget,2013-02-05 15:50:00,
2013-02-05 10:55:00,34.6,32.4,27.10,NNE,16,2.9,14.2,91,0.00,--,--,0.00,awk and wget,2013-02-05 15:55:00,
2013-02-05 11:00:00,34.5,32.5,27.10,NNW,336,6.8,14.2,91,0.00,--,--,0.00,awk and wget,2013-02-05 16:00:00,
2013-02-05 11:10:00,34.3,32.4,27.11,NNW,335,5.9,13.8,92,0.00,--,--,0.00,awk and wget,2013-02-05 16:10:00,
2013-02-05 11:20:00,34.7,32.8,27.10,NNW,337,4.0,12.6,92,0.00,--,--,0.00,awk and wget,2013-02-05 16:20:00,
2013-02-05 11:30:00,34.9,32.9,27.10,NNW,337,4.6,13.7,92,0.00,--,--,0.00,awk and wget,2013-02-05 16:30:00,
2013-02-05 11:40:00,35.0,32.6,27.10,NNW,334,14.5,14.9,90,0.00,--,--,0.00,awk and wget,2013-02-05 16:40:00,
2013-02-05 11:50:00,35.3,32.8,27.09,NNW,337,5.0,14.9,90,0.00,--,--,0.00,awk and wget,2013-02-05 16:50:00,
2013-02-05 12:00:00,35.4,32.6,27.09,NNW,335,4.8,14.9,89,0.00,--,--,0.00,awk and wget,2013-02-05 17:00:00,
2013-02-05 12:10:00,35.2,32.6,27.09,NNW,334,9.8,15.4,90,0.00,--,--,0.00,awk and wget,2013-02-05 17:10:00,
2013-02-05 12:20:00,35.4,33.1,27.08,North,5,6.5,13.8,90,0.00,--,--,0.00,awk and wget,2013-02-05 17:20:00,
2013-02-05 12:30:00,35.4,33.1,27.08,NNW,335,5.0,12.6,91,0.00,--,--,0.00,awk and wget,2013-02-05 17:30:00,
2013-02-05 12:40:00,35.6,33.1,27.08,NNW,336,5.9,12.5,90,0.00,--,--,0.00,awk and wget,2013-02-05 17:40:00,
2013-02-05 12:50:00,35.7,33.1,27.07,NNW,337,3.1,10.3,89,0.00,--,--,0.00,awk and wget,2013-02-05 17:50:00,
2013-02-05 13:00:00,35.9,32.6,27.07,NNW,335,4.7,12.0,87,0.00,--,--,0.00,awk and wget,2013-02-05 18:00:00,
2013-02-05 13:10:00,35.7,32.7,27.07,NNW,338,16.8,16.8,88,0.00,--,--,0.00,awk and wget,2013-02-05 18:10:00,
2013-02-05 13:20:00,35.8,32.5,27.07,NNW,337,9.8,20.3,87,0.00,--,--,0.00,awk and wget,2013-02-05 18:20:00,
2013-02-05 13:30:00,37.2,31.8,27.07,NNW,333,15.6,20.3,80,0.00,--,--,0.00,awk and wget,2013-02-05 18:30:00,
2013-02-05 13:40:00,38.5,31.2,27.06,NNW,338,8.8,17.6,74,0.00,--,--,0.00,awk and wget,2013-02-05 18:40:00,
2013-02-05 13:50:00,37.8,31.3,27.07,NNW,335,13.7,17.6,77,0.00,--,--,0.00,awk and wget,2013-02-05 18:50:00,
2013-02-05 14:00:00,37.8,31.1,27.06,NNW,335,3.7,18.3,76,0.00,--,--,0.00,awk and wget,2013-02-05 19:00:00,
2013-02-05 14:05:00,38.1,31.0,27.06,NNW,338,4.0,18.9,75,0.00,--,--,0.00,awk and wget,2013-02-05 19:05:00,
2013-02-05 14:10:00,38.1,31.4,27.06,NNW,338,2.5,18.9,76,0.00,--,--,0.00,awk and wget,2013-02-05 19:10:00,
2013-02-05 14:20:00,38.1,30.6,27.06,ENE,75,7.7,21.7,74,0.00,--,--,0.00,awk and wget,2013-02-05 19:20:00,
2013-02-05 14:30:00,38.3,30.7,27.07,NNW,338,12.3,22.6,73,0.00,--,--,0.00,awk and wget,2013-02-05 19:30:00,
2013-02-05 14:40:00,38.5,30.4,27.07,NNW,334,8.1,19.1,72,0.00,--,--,0.00,awk and wget,2013-02-05 19:40:00,
2013-02-05 14:45:00,38.4,30.7,27.07,NNW,338,7.7,19.3,73,0.00,--,--,0.00,awk and wget,2013-02-05 19:45:00,
2013-02-05 14:50:00,38.5,30.9,27.07,NNW,338,9.6,19.9,73,0.00,--,--,0.00,awk and wget,2013-02-05 19:50:00,
2013-02-05 15:00:00,38.5,30.4,27.07,NNW,333,15.0,19.9,72,0.00,--,--,0.00,awk and wget,2013-02-05 20:00:00,
2013-02-05 15:05:00,38.1,30.1,27.08,NNW,335,11.1,17.1,72,0.00,--,--,0.00,awk and wget,2013-02-05 20:05:00,
2013-02-05 15:15:00,38.2,29.4,27.08,NNW,335,9.2,20.5,70,0.00,--,--,0.00,awk and wget,2013-02-05 20:15:00,
2013-02-05 15:20:00,38.2,29.0,27.08,NNW,335,7.3,20.5,69,0.00,--,--,0.00,awk and wget,2013-02-05 20:20:00,
2013-02-05 15:30:00,38.3,28.5,27.09,NNW,333,16.2,21.2,67,0.00,--,--,0.00,awk and wget,2013-02-05 20:30:00,
2013-02-05 15:40:00,38.8,28.0,27.09,SE,129,2.5,24.6,64,0.00,--,--,0.00,awk and wget,2013-02-05 20:40:00,
2013-02-05 15:50:00,38.5,28.0,27.09,NNW,336,9.5,25.6,65,0.00,--,--,0.00,awk and wget,2013-02-05 20:50:00,
2013-02-05 16:00:00,38.5,28.0,27.09,NNW,335,4.0,19.7,65,0.00,--,--,0.00,awk and wget,2013-02-05 21:00:00,
2013-02-05 16:10:00,38.7,27.7,27.09,North,351,5.9,23.0,64,0.00,--,--,0.00,awk and wget,2013-02-05 21:10:00,
2013-02-05 16:15:00,38.6,27.7,27.09,NNW,336,21.9,23.0,64,0.00,--,--,0.00,awk and wget,2013-02-05 21:15:00,
2013-02-05 16:20:00,38.5,27.8,27.10,NNW,337,13.0,15.6,65,0.00,--,--,0.00,awk and wget,2013-02-05 21:20:00,
2013-02-05 16:30:00,38.4,27.6,27.10,NNW,339,9.8,15.5,64,0.00,--,--,0.00,awk and wget,2013-02-05 21:30:00,
2013-02-05 16:40:00,38.2,28.0,27.10,NNW,333,9.1,13.8,66,0.00,--,--,0.00,awk and wget,2013-02-05 21:40:00,
2013-02-05 16:45:00,38.1,27.1,27.10,NNW,346,17.7,17.7,64,0.00,--,--,0.00,awk and wget,2013-02-05 21:45:00,
2013-02-05 16:50:00,38.2,26.5,27.10,NNW,334,8.4,18.0,62,0.00,--,--,0.00,awk and wget,2013-02-05 21:50:00,
2013-02-05 16:55:00,37.9,26.9,27.10,North,11,8.6,18.0,64,0.00,--,--,0.00,awk and wget,2013-02-05 21:55:00,
2013-02-05 17:00:00,38.0,27.0,27.10,NNW,333,14.7,18.0,64,0.00,--,--,0.00,awk and wget,2013-02-05 22:00:00,
2013-02-05 17:10:00,37.7,27.3,27.10,NNW,342,4.7,12.8,65,0.00,--,--,0.00,awk and wget,2013-02-05 22:10:00,
2013-02-05 17:15:00,37.7,27.0,27.10,NNW,335,4.1,23.8,65,0.00,--,--,0.00,awk and wget,2013-02-05 22:15:00,
2013-02-05 17:20:00,37.6,27.3,27.10,NNW,332,4.4,23.8,66,0.00,--,--,0.00,awk and wget,2013-02-05 22:20:00,
2013-02-05 17:30:00,37.5,27.3,27.09,NNW,336,12.6,14.9,66,0.00,--,--,0.00,awk and wget,2013-02-05 22:30:00,
2013-02-05 17:40:00,37.4,27.2,27.09,NNW,337,5.9,17.7,66,0.00,--,--,0.00,awk and wget,2013-02-05 22:40:00,
2013-02-05 17:45:00,37.4,27.0,27.09,NNW,341,8.2,17.7,65,0.00,--,--,0.00,awk and wget,2013-02-05 22:45:00,
2013-02-05 17:50:00,37.0,27.5,27.09,NNW,334,3.4,10.5,68,0.00,--,--,0.00,awk and wget,2013-02-05 22:50:00,
2013-02-05 18:00:00,37.3,27.1,27.09,NNW,338,3.3,8.7,66,0.00,--,--,0.00,awk and wget,2013-02-05 23:00:00,
2013-02-05 18:10:00,37.4,26.9,27.10,NNW,337,5.2,8.7,65,0.00,--,--,0.00,awk and wget,2013-02-05 23:10:00,
2013-02-05 18:15:00,36.9,27.4,27.10,NNW,333,8.7,11.1,68,0.00,--,--,0.00,awk and wget,2013-02-05 23:15:00,
2013-02-05 18:20:00,37.1,26.9,27.10,NNW,336,9.7,14.5,66,0.00,--,--,0.00,awk and wget,2013-02-05 23:20:00,
2013-02-05 18:30:00,37.2,27.0,27.10,NNW,334,16.6,16.6,66,0.00,--,--,0.00,awk and wget,2013-02-05 23:30:00,
2013-02-05 18:40:00,37.0,26.8,27.10,NNW,339,4.6,17.4,66,0.00,--,--,0.00,awk and wget,2013-02-05 23:40:00,
2013-02-05 18:50:00,37.0,27.0,27.11,NNW,338,10.7,17.9,66,0.00,--,--,0.00,awk and wget,2013-02-05 23:50:00,
2013-02-05 19:00:00,36.8,27.4,27.10,NNW,335,5.1,17.9,68,0.00,--,--,0.00,awk and wget,2013-02-06 00:00:00,
2013-02-05 19:10:00,35.7,27.2,27.11,NNW,333,5.1,13.8,70,0.00,--,--,0.00,awk and wget,2013-02-06 00:10:00,
2013-02-05 19:20:00,36.0,27.6,27.11,NNW,335,3.5,13.8,71,0.00,--,--,0.00,awk and wget,2013-02-06 00:20:00,
2013-02-05 19:30:00,35.3,28.1,27.11,NNW,339,4.0,9.4,75,0.00,--,--,0.00,awk and wget,2013-02-06 00:30:00,
2013-02-05 19:40:00,33.2,27.4,27.11,NNW,335,5.4,10.0,78,0.00,--,--,0.00,awk and wget,2013-02-06 00:40:00,
2013-02-05 19:45:00,33.4,27.8,27.11,NNW,336,1.4,10.0,79,0.00,--,--,0.00,awk and wget,2013-02-06 00:45:00,
2013-02-05 19:50:00,33.4,28.0,27.10,NNW,339,1.1,8.0,80,0.00,--,--,0.00,awk and wget,2013-02-06 00:50:00,
2013-02-05 20:00:00,34.1,27.8,27.10,NNW,338,3.1,7.0,77,0.00,--,--,0.00,awk and wget,2013-02-06 01:00:00,
2013-02-05 20:10:00,33.4,28.2,27.10,NNW,339,3.3,6.2,80,0.00,--,--,0.00,awk and wget,2013-02-06 01:10:00,
2013-02-05 20:20:00,32.9,27.3,27.11,NNW,336,3.6,8.5,79,0.00,--,--,0.00,awk and wget,2013-02-06 01:20:00,
2013-02-05 20:30:00,34.5,27.9,27.10,NNW,340,3.4,8.6,76,0.00,--,--,0.00,awk and wget,2013-02-06 01:30:00,
2013-02-05 20:40:00,33.5,28.5,27.11,NNW,338,2.6,10.7,81,0.00,--,--,0.00,awk and wget,2013-02-06 01:40:00,
2013-02-05 20:50:00,34.9,28.7,27.11,NNW,336,2.2,8.3,77,0.00,--,--,0.00,awk and wget,2013-02-06 01:50:00,
2013-02-05 21:00:00,35.1,28.6,27.11,NNW,335,5.1,6.9,76,0.00,--,--,0.00,awk and wget,2013-02-06 02:00:00,
2013-02-05 21:10:00,34.7,28.7,27.11,NNW,338,3.7,7.0,78,0.00,--,--,0.00,awk and wget,2013-02-06 02:10:00,
2013-02-05 21:20:00,34.7,28.8,27.12,NNW,337,2.4,7.8,78,0.00,--,--,0.00,awk and wget,2013-02-06 02:20:00,
2013-02-05 21:30:00,36.1,28.7,27.12,NNW,339,8.7,16.2,74,0.00,--,--,0.00,awk and wget,2013-02-06 02:30:00,
2013-02-05 21:40:00,34.8,29.1,27.12,NNW,337,3.1,16.2,79,0.00,--,--,0.00,awk and wget,2013-02-06 02:40:00,
2013-02-05 21:50:00,34.0,29.4,27.12,NNW,335,3.2,10.1,83,0.00,--,--,0.00,awk and wget,2013-02-06 02:50:00,
2013-02-05 21:55:00,34.5,29.6,27.12,NNW,335,9.8,10.1,82,0.00,--,--,0.00,awk and wget,2013-02-06 02:55:00,
2013-02-05 22:00:00,34.3,29.4,27.12,ESE,119,4.7,9.8,81,0.00,--,--,0.00,awk and wget,2013-02-06 03:00:00,
2013-02-05 22:05:00,34.5,29.7,27.12,NNW,339,1.4,9.8,82,0.00,--,--,0.00,awk and wget,2013-02-06 03:05:00,
2013-02-05 22:10:00,35.3,29.6,27.12,NNW,337,2.0,9.8,79,0.00,--,--,0.00,awk and wget,2013-02-06 03:10:00,
2013-02-05 22:20:00,34.8,30.3,27.13,NNW,340,4.3,7.0,83,0.00,--,--,0.00,awk and wget,2013-02-06 03:20:00,
2013-02-05 22:30:00,34.1,30.5,27.13,NNW,337,1.0,7.8,86,0.00,--,--,0.00,awk and wget,2013-02-06 03:30:00,
2013-02-05 22:40:00,34.8,31.2,27.13,NNW,340,3.4,9.4,86,0.00,--,--,0.00,awk and wget,2013-02-06 03:40:00,
2013-02-05 22:50:00,33.3,30.7,27.13,SSE,152,2.7,7.8,90,0.00,--,--,0.00,awk and wget,2013-02-06 03:50:00,
2013-02-05 23:00:00,32.5,30.6,27.14,SE,132,0.4,6.8,92,0.00,--,--,0.00,awk and wget,2013-02-06 04:00:00,
2013-02-05 23:10:00,32.3,30.8,27.14,East,80,3.5,7.8,94,0.00,--,--,0.00,awk and wget,2013-02-06 04:10:00,
2013-02-05 23:15:00,32.2,30.8,27.14,ENE,59,3.7,8.5,94,0.00,--,--,0.00,awk and wget,2013-02-06 04:15:00,
2013-02-05 23:20:00,32.1,30.9,27.14,East,87,3.6,8.5,95,0.00,--,--,0.00,awk and wget,2013-02-06 04:20:00,
2013-02-05 23:30:00,32.1,31.0,27.15,East,96,3.2,8.0,95,0.00,--,--,0.00,awk and wget,2013-02-06 04:30:00,
2013-02-05 23:40:00,32.0,30.9,27.15,ENE,78,2.6,6.4,95,0.00,--,--,0.00,awk and wget,2013-02-06 04:40:00,
2013-02-05 23:45:00,32.0,30.9,27.15,ESE,114,2.9,6.4,95,0.00,--,--,0.00,awk and wget,2013-02-06 04:45:00,
2013-02-05 23:50:00,31.9,30.9,27.15,ESE,102,8.2,11.7,96,0.00,--,--,0.00,awk and wget,2013-02-06 04:50:00,